sensor_id;sensor_type;location;lat;lon;timestamp;P1;durP1;ratioP1;P2;durP2;ratioP2
72408;SDS011;60402;48.082;11.628;2023-11-19T00:02:25;4.22;;;1.35;;
72408;SDS011;60402;48.082;11.628;2023-11-19T00:05:12;4.05;;;1.20;;
72408;SDS011;60402;48.082;11.628;2023-11-19T00:07:57;3.53;;;1.25;;
72408;SDS011;60402;48.082;11.628;2023-11-19T00:10:43;2.15;;;0.93;;
72408;SDS011;60402;48.082;11.628;2023-11-19T00:13:28;3.08;;;1.00;;
72408;SDS011;60402;48.082;11.628;2023-11-19T00:16:14;1.95;;;0.90;;
72408;SDS011;60402;48.082;11.628;2023-11-19T00:19:01;1.77;;;0.82;;
72408;SDS011;60402;48.082;11.628;2023-11-19T00:21:49;3.13;;;1.20;;
72408;SDS011;60402;48.082;11.628;2023-11-19T00:24:35;3.13;;;0.82;;
72408;SDS011;60402;48.082;11.628;2023-11-19T00:27:20;1.85;;;0.80;;
72408;SDS011;60402;48.082;11.628;2023-11-19T00:30:06;2.45;;;0.98;;
72408;SDS011;60402;48.082;11.628;2023-11-19T00:32:53;2.85;;;1.10;;
72408;SDS011;60402;48.082;11.628;2023-11-19T00:35:39;1.48;;;0.80;;
72408;SDS011;60402;48.082;11.628;2023-11-19T00:38:24;2.20;;;1.10;;
72408;SDS011;60402;48.082;11.628;2023-11-19T00:41:10;1.30;;;0.73;;
72408;SDS011;60402;48.082;11.628;2023-11-19T00:43:56;2.42;;;0.93;;
72408;SDS011;60402;48.082;11.628;2023-11-19T00:46:41;1.45;;;0.93;;
72408;SDS011;60402;48.082;11.628;2023-11-19T00:49:27;1.52;;;0.80;;
72408;SDS011;60402;48.082;11.628;2023-11-19T00:52:13;1.45;;;0.80;;
72408;SDS011;60402;48.082;11.628;2023-11-19T00:54:58;2.28;;;1.00;;
72408;SDS011;60402;48.082;11.628;2023-11-19T00:57:44;2.50;;;0.98;;
72408;SDS011;60402;48.082;11.628;2023-11-19T01:00:30;1.40;;;0.80;;
72408;SDS011;60402;48.082;11.628;2023-11-19T01:03:17;2.50;;;1.00;;
72408;SDS011;60402;48.082;11.628;2023-11-19T01:06:03;2.15;;;0.82;;
72408;SDS011;60402;48.082;11.628;2023-11-19T01:08:50;1.88;;;0.80;;
72408;SDS011;60402;48.082;11.628;2023-11-19T01:11:35;1.70;;;0.88;;
72408;SDS011;60402;48.082;11.628;2023-11-19T01:14:21;2.33;;;1.08;;
72408;SDS011;60402;48.082;11.628;2023-11-19T01:17:07;1.48;;;0.98;;
72408;SDS011;60402;48.082;11.628;2023-11-19T01:19:52;2.75;;;1.23;;
72408;SDS011;60402;48.082;11.628;2023-11-19T01:22:38;2.33;;;1.10;;
72408;SDS011;60402;48.082;11.628;2023-11-19T01:25:24;1.42;;;0.80;;
72408;SDS011;60402;48.082;11.628;2023-11-19T01:28:09;3.15;;;1.02;;
72408;SDS011;60402;48.082;11.628;2023-11-19T01:30:55;2.17;;;0.98;;
72408;SDS011;60402;48.082;11.628;2023-11-19T01:33:40;2.95;;;0.95;;
72408;SDS011;60402;48.082;11.628;2023-11-19T01:36:27;1.92;;;0.80;;
72408;SDS011;60402;48.082;11.628;2023-11-19T01:39:13;4.10;;;1.05;;
72408;SDS011;60402;48.082;11.628;2023-11-19T01:42:01;2.63;;;1.10;;
72408;SDS011;60402;48.082;11.628;2023-11-19T01:44:59;2.13;;;0.98;;
72408;SDS011;60402;48.082;11.628;2023-11-19T01:47:45;2.83;;;1.20;;
72408;SDS011;60402;48.082;11.628;2023-11-19T01:50:31;2.03;;;0.90;;
72408;SDS011;60402;48.082;11.628;2023-11-19T01:53:18;3.38;;;1.08;;
72408;SDS011;60402;48.082;11.628;2023-11-19T01:56:05;2.35;;;0.98;;
72408;SDS011;60402;48.082;11.628;2023-11-19T01:58:54;2.95;;;1.10;;
72408;SDS011;60402;48.082;11.628;2023-11-19T02:01:41;2.67;;;0.90;;
72408;SDS011;60402;48.082;11.628;2023-11-19T02:04:27;2.95;;;1.10;;
72408;SDS011;60402;48.082;11.628;2023-11-19T02:07:13;3.63;;;1.02;;
72408;SDS011;60402;48.082;11.628;2023-11-19T02:09:59;2.75;;;1.00;;
72408;SDS011;60402;48.082;11.628;2023-11-19T02:12:47;2.33;;;0.95;;
72408;SDS011;60402;48.082;11.628;2023-11-19T02:15:33;2.35;;;1.00;;
72408;SDS011;60402;48.082;11.628;2023-11-19T02:21:05;2.38;;;0.82;;
72408;SDS011;60402;48.082;11.628;2023-11-19T02:23:51;3.17;;;0.80;;
72408;SDS011;60402;48.082;11.628;2023-11-19T02:26:56;3.58;;;0.95;;
72408;SDS011;60402;48.082;11.628;2023-11-19T02:29:47;1.90;;;0.60;;
72408;SDS011;60402;48.082;11.628;2023-11-19T02:32:33;0.95;;;0.60;;
72408;SDS011;60402;48.082;11.628;2023-11-19T02:35:18;1.70;;;0.65;;
72408;SDS011;60402;48.082;11.628;2023-11-19T02:38:04;1.45;;;0.70;;
72408;SDS011;60402;48.082;11.628;2023-11-19T02:40:52;1.50;;;0.80;;
72408;SDS011;60402;48.082;11.628;2023-11-19T02:43:37;1.30;;;0.60;;
72408;SDS011;60402;48.082;11.628;2023-11-19T02:46:24;2.70;;;0.70;;
72408;SDS011;60402;48.082;11.628;2023-11-19T02:49:10;1.35;;;0.60;;
72408;SDS011;60402;48.082;11.628;2023-11-19T02:51:55;0.98;;;0.57;;
72408;SDS011;60402;48.082;11.628;2023-11-19T02:54:42;0.68;;;0.45;;
72408;SDS011;60402;48.082;11.628;2023-11-19T02:57:30;1.00;;;0.70;;
72408;SDS011;60402;48.082;11.628;2023-11-19T03:00:18;1.45;;;0.52;;
72408;SDS011;60402;48.082;11.628;2023-11-19T03:03:08;0.90;;;0.45;;
72408;SDS011;60402;48.082;11.628;2023-11-19T03:06:17;1.65;;;0.47;;
72408;SDS011;60402;48.082;11.628;2023-11-19T03:09:03;1.27;;;0.60;;
72408;SDS011;60402;48.082;11.628;2023-11-19T03:11:55;1.02;;;0.52;;
72408;SDS011;60402;48.082;11.628;2023-11-19T03:14:41;0.70;;;0.45;;
72408;SDS011;60402;48.082;11.628;2023-11-19T03:17:27;0.60;;;0.50;;
72408;SDS011;60402;48.082;11.628;2023-11-19T03:20:13;0.85;;;0.60;;
72408;SDS011;60402;48.082;11.628;2023-11-19T03:23:02;2.08;;;0.50;;
72408;SDS011;60402;48.082;11.628;2023-11-19T03:25:47;0.75;;;0.47;;
72408;SDS011;60402;48.082;11.628;2023-11-19T03:28:33;1.05;;;0.50;;
72408;SDS011;60402;48.082;11.628;2023-11-19T03:31:19;0.70;;;0.50;;
72408;SDS011;60402;48.082;11.628;2023-11-19T03:34:05;0.85;;;0.32;;
72408;SDS011;60402;48.082;11.628;2023-11-19T03:36:52;0.95;;;0.43;;
72408;SDS011;60402;48.082;11.628;2023-11-19T03:39:38;1.42;;;0.60;;
72408;SDS011;60402;48.082;11.628;2023-11-19T03:42:24;1.88;;;0.60;;
72408;SDS011;60402;48.082;11.628;2023-11-19T03:45:09;0.73;;;0.40;;
72408;SDS011;60402;48.082;11.628;2023-11-19T03:47:55;0.68;;;0.38;;
72408;SDS011;60402;48.082;11.628;2023-11-19T03:50:41;1.15;;;0.57;;
72408;SDS011;60402;48.082;11.628;2023-11-19T03:53:26;0.75;;;0.45;;
72408;SDS011;60402;48.082;11.628;2023-11-19T03:56:12;0.73;;;0.35;;
72408;SDS011;60402;48.082;11.628;2023-11-19T03:58:58;2.25;;;0.50;;
72408;SDS011;60402;48.082;11.628;2023-11-19T04:01:44;1.95;;;0.50;;
72408;SDS011;60402;48.082;11.628;2023-11-19T04:04:29;1.42;;;0.45;;
72408;SDS011;60402;48.082;11.628;2023-11-19T04:07:15;0.65;;;0.40;;
72408;SDS011;60402;48.082;11.628;2023-11-19T04:10:00;1.05;;;0.40;;
72408;SDS011;60402;48.082;11.628;2023-11-19T04:12:47;0.90;;;0.40;;
72408;SDS011;60402;48.082;11.628;2023-11-19T04:15:32;1.27;;;0.60;;
72408;SDS011;60402;48.082;11.628;2023-11-19T04:18:18;0.75;;;0.40;;
72408;SDS011;60402;48.082;11.628;2023-11-19T04:21:05;1.60;;;0.30;;
72408;SDS011;60402;48.082;11.628;2023-11-19T04:23:52;0.93;;;0.50;;
72408;SDS011;60402;48.082;11.628;2023-11-19T04:26:41;0.50;;;0.50;;
72408;SDS011;60402;48.082;11.628;2023-11-19T04:29:30;1.02;;;0.50;;
72408;SDS011;60402;48.082;11.628;2023-11-19T04:32:16;1.98;;;0.55;;
72408;SDS011;60402;48.082;11.628;2023-11-19T04:35:02;1.02;;;0.35;;
72408;SDS011;60402;48.082;11.628;2023-11-19T04:37:47;1.33;;;0.50;;
72408;SDS011;60402;48.082;11.628;2023-11-19T04:40:33;1.23;;;0.52;;
72408;SDS011;60402;48.082;11.628;2023-11-19T04:43:19;0.75;;;0.40;;
72408;SDS011;60402;48.082;11.628;2023-11-19T04:46:05;0.63;;;0.30;;
72408;SDS011;60402;48.082;11.628;2023-11-19T04:48:51;0.75;;;0.40;;
72408;SDS011;60402;48.082;11.628;2023-11-19T04:51:44;1.02;;;0.30;;
72408;SDS011;60402;48.082;11.628;2023-11-19T04:54:32;1.23;;;0.43;;
72408;SDS011;60402;48.082;11.628;2023-11-19T04:57:18;0.82;;;0.30;;
72408;SDS011;60402;48.082;11.628;2023-11-19T05:00:04;2.30;;;0.32;;
72408;SDS011;60402;48.082;11.628;2023-11-19T05:02:51;1.02;;;0.43;;
72408;SDS011;60402;48.082;11.628;2023-11-19T05:05:36;0.93;;;0.40;;
72408;SDS011;60402;48.082;11.628;2023-11-19T05:08:22;1.33;;;0.50;;
72408;SDS011;60402;48.082;11.628;2023-11-19T05:11:08;0.68;;;0.30;;
72408;SDS011;60402;48.082;11.628;2023-11-19T05:13:57;0.38;;;0.30;;
72408;SDS011;60402;48.082;11.628;2023-11-19T05:16:43;1.50;;;0.38;;
72408;SDS011;60402;48.082;11.628;2023-11-19T05:19:29;0.35;;;0.32;;
72408;SDS011;60402;48.082;11.628;2023-11-19T05:22:14;0.55;;;0.30;;
72408;SDS011;60402;48.082;11.628;2023-11-19T05:25:00;1.00;;;0.40;;
72408;SDS011;60402;48.082;11.628;2023-11-19T05:27:47;0.60;;;0.40;;
72408;SDS011;60402;48.082;11.628;2023-11-19T05:30:33;0.60;;;0.50;;
72408;SDS011;60402;48.082;11.628;2023-11-19T05:33:21;1.33;;;0.40;;
72408;SDS011;60402;48.082;11.628;2023-11-19T05:36:07;2.88;;;0.60;;
72408;SDS011;60402;48.082;11.628;2023-11-19T05:38:54;0.47;;;0.20;;
72408;SDS011;60402;48.082;11.628;2023-11-19T05:41:39;0.63;;;0.40;;
72408;SDS011;60402;48.082;11.628;2023-11-19T05:44:25;1.15;;;0.50;;
72408;SDS011;60402;48.082;11.628;2023-11-19T05:47:11;0.63;;;0.38;;
72408;SDS011;60402;48.082;11.628;2023-11-19T05:49:56;0.88;;;0.45;;
72408;SDS011;60402;48.082;11.628;2023-11-19T05:52:42;0.90;;;0.45;;
72408;SDS011;60402;48.082;11.628;2023-11-19T05:55:27;0.85;;;0.38;;
72408;SDS011;60402;48.082;11.628;2023-11-19T05:58:14;2.15;;;0.45;;
72408;SDS011;60402;48.082;11.628;2023-11-19T06:01:00;0.52;;;0.30;;
72408;SDS011;60402;48.082;11.628;2023-11-19T06:03:49;1.50;;;0.40;;
72408;SDS011;60402;48.082;11.628;2023-11-19T06:06:35;0.95;;;0.50;;
72408;SDS011;60402;48.082;11.628;2023-11-19T06:09:21;0.57;;;0.17;;
72408;SDS011;60402;48.082;11.628;2023-11-19T06:12:08;1.85;;;0.50;;
72408;SDS011;60402;48.082;11.628;2023-11-19T06:14:54;1.50;;;0.30;;
72408;SDS011;60402;48.082;11.628;2023-11-19T06:17:39;0.45;;;0.20;;
72408;SDS011;60402;48.082;11.628;2023-11-19T06:20:25;0.85;;;0.20;;
72408;SDS011;60402;48.082;11.628;2023-11-19T06:23:13;0.50;;;0.30;;
72408;SDS011;60402;48.082;11.628;2023-11-19T06:25:58;0.60;;;0.30;;
72408;SDS011;60402;48.082;11.628;2023-11-19T06:28:44;0.90;;;0.50;;
72408;SDS011;60402;48.082;11.628;2023-11-19T06:31:30;0.40;;;0.20;;
72408;SDS011;60402;48.082;11.628;2023-11-19T06:34:15;0.30;;;0.10;;
72408;SDS011;60402;48.082;11.628;2023-11-19T06:37:01;0.17;;;0.17;;
72408;SDS011;60402;48.082;11.628;2023-11-19T06:39:49;0.47;;;0.10;;
72408;SDS011;60402;48.082;11.628;2023-11-19T06:42:35;0.40;;;0.30;;
72408;SDS011;60402;48.082;11.628;2023-11-19T06:45:21;0.65;;;0.28;;
72408;SDS011;60402;48.082;11.628;2023-11-19T06:48:06;0.13;;;0.13;;
72408;SDS011;60402;48.082;11.628;2023-11-19T06:50:52;0.60;;;0.20;;
72408;SDS011;60402;48.082;11.628;2023-11-19T06:53:39;0.38;;;0.22;;
72408;SDS011;60402;48.082;11.628;2023-11-19T06:56:25;0.35;;;0.20;;
72408;SDS011;60402;48.082;11.628;2023-11-19T06:59:11;0.45;;;0.10;;
72408;SDS011;60402;48.082;11.628;2023-11-19T07:01:56;0.55;;;0.20;;
72408;SDS011;60402;48.082;11.628;2023-11-19T07:04:42;0.30;;;0.10;;
72408;SDS011;60402;48.082;11.628;2023-11-19T07:07:28;0.93;;;0.30;;
72408;SDS011;60402;48.082;11.628;2023-11-19T07:10:13;0.40;;;0.20;;
72408;SDS011;60402;48.082;11.628;2023-11-19T07:12:59;0.57;;;0.20;;
72408;SDS011;60402;48.082;11.628;2023-11-19T07:15:45;0.15;;;0.15;;
72408;SDS011;60402;48.082;11.628;2023-11-19T07:18:31;0.38;;;0.20;;
72408;SDS011;60402;48.082;11.628;2023-11-19T07:21:17;0.25;;;0.15;;
72408;SDS011;60402;48.082;11.628;2023-11-19T07:24:02;0.43;;;0.13;;
72408;SDS011;60402;48.082;11.628;2023-11-19T07:26:48;0.10;;;0.10;;
72408;SDS011;60402;48.082;11.628;2023-11-19T07:29:34;0.52;;;0.20;;
72408;SDS011;60402;48.082;11.628;2023-11-19T07:32:21;0.20;;;0.20;;
72408;SDS011;60402;48.082;11.628;2023-11-19T07:35:06;0.88;;;0.30;;
72408;SDS011;60402;48.082;11.628;2023-11-19T07:37:52;0.40;;;0.13;;
72408;SDS011;60402;48.082;11.628;2023-11-19T07:40:38;0.65;;;0.30;;
72408;SDS011;60402;48.082;11.628;2023-11-19T07:43:24;1.17;;;0.35;;
72408;SDS011;60402;48.082;11.628;2023-11-19T07:46:13;0.95;;;0.17;;
72408;SDS011;60402;48.082;11.628;2023-11-19T07:48:59;0.15;;;0.13;;
72408;SDS011;60402;48.082;11.628;2023-11-19T07:51:44;0.77;;;0.20;;
72408;SDS011;60402;48.082;11.628;2023-11-19T07:54:30;0.68;;;0.30;;
72408;SDS011;60402;48.082;11.628;2023-11-19T07:57:16;0.52;;;0.22;;
72408;SDS011;60402;48.082;11.628;2023-11-19T08:00:01;0.20;;;0.10;;
72408;SDS011;60402;48.082;11.628;2023-11-19T08:02:48;0.10;;;0.10;;
72408;SDS011;60402;48.082;11.628;2023-11-19T08:05:34;0.20;;;0.10;;
72408;SDS011;60402;48.082;11.628;2023-11-19T08:08:19;0.30;;;0.15;;
72408;SDS011;60402;48.082;11.628;2023-11-19T08:11:05;0.10;;;0.10;;
72408;SDS011;60402;48.082;11.628;2023-11-19T08:13:51;0.38;;;0.10;;
72408;SDS011;60402;48.082;11.628;2023-11-19T08:16:38;2.97;;;0.30;;
72408;SDS011;60402;48.082;11.628;2023-11-19T08:19:24;0.40;;;0.20;;
72408;SDS011;60402;48.082;11.628;2023-11-19T08:22:10;0.45;;;0.00;;
72408;SDS011;60402;48.082;11.628;2023-11-19T08:24:56;0.52;;;0.20;;
72408;SDS011;60402;48.082;11.628;2023-11-19T08:27:41;0.55;;;0.30;;
72408;SDS011;60402;48.082;11.628;2023-11-19T08:30:28;0.40;;;0.28;;
72408;SDS011;60402;48.082;11.628;2023-11-19T08:33:14;0.55;;;0.40;;
72408;SDS011;60402;48.082;11.628;2023-11-19T08:36:00;0.38;;;0.28;;
72408;SDS011;60402;48.082;11.628;2023-11-19T08:38:46;0.47;;;0.20;;
72408;SDS011;60402;48.082;11.628;2023-11-19T08:41:33;1.00;;;0.40;;
72408;SDS011;60402;48.082;11.628;2023-11-19T08:44:19;0.17;;;0.10;;
72408;SDS011;60402;48.082;11.628;2023-11-19T08:47:05;0.00;;;0.00;;
72408;SDS011;60402;48.082;11.628;2023-11-19T08:49:51;0.40;;;0.10;;
72408;SDS011;60402;48.082;11.628;2023-11-19T08:52:37;0.85;;;0.30;;
72408;SDS011;60402;48.082;11.628;2023-11-19T08:55:23;0.50;;;0.10;;
72408;SDS011;60402;48.082;11.628;2023-11-19T08:58:09;0.50;;;0.10;;
72408;SDS011;60402;48.082;11.628;2023-11-19T09:00:54;0.38;;;0.10;;
72408;SDS011;60402;48.082;11.628;2023-11-19T09:03:41;0.82;;;0.20;;
72408;SDS011;60402;48.082;11.628;2023-11-19T09:06:27;0.73;;;0.30;;
72408;SDS011;60402;48.082;11.628;2023-11-19T09:09:12;0.57;;;0.30;;
72408;SDS011;60402;48.082;11.628;2023-11-19T09:11:59;0.65;;;0.25;;
72408;SDS011;60402;48.082;11.628;2023-11-19T09:14:45;0.50;;;0.20;;
72408;SDS011;60402;48.082;11.628;2023-11-19T09:17:31;1.00;;;0.30;;
72408;SDS011;60402;48.082;11.628;2023-11-19T09:20:16;1.13;;;0.38;;
72408;SDS011;60402;48.082;11.628;2023-11-19T09:23:02;0.85;;;0.20;;
72408;SDS011;60402;48.082;11.628;2023-11-19T09:25:48;1.75;;;0.40;;
72408;SDS011;60402;48.082;11.628;2023-11-19T09:28:33;0.93;;;0.77;;
72408;SDS011;60402;48.082;11.628;2023-11-19T09:31:19;2.03;;;0.50;;
72408;SDS011;60402;48.082;11.628;2023-11-19T09:34:05;1.02;;;0.40;;
72408;SDS011;60402;48.082;11.628;2023-11-19T09:36:51;0.57;;;0.20;;
72408;SDS011;60402;48.082;11.628;2023-11-19T09:39:37;0.52;;;0.30;;
72408;SDS011;60402;48.082;11.628;2023-11-19T09:42:23;0.63;;;0.20;;
72408;SDS011;60402;48.082;11.628;2023-11-19T09:45:12;0.60;;;0.30;;
72408;SDS011;60402;48.082;11.628;2023-11-19T09:48:00;0.70;;;0.28;;
72408;SDS011;60402;48.082;11.628;2023-11-19T09:50:47;0.40;;;0.28;;
72408;SDS011;60402;48.082;11.628;2023-11-19T09:53:34;0.68;;;0.20;;
72408;SDS011;60402;48.082;11.628;2023-11-19T09:56:21;0.20;;;0.20;;
72408;SDS011;60402;48.082;11.628;2023-11-19T09:59:08;0.60;;;0.30;;
72408;SDS011;60402;48.082;11.628;2023-11-19T10:01:56;0.90;;;0.32;;
72408;SDS011;60402;48.082;11.628;2023-11-19T10:04:42;0.45;;;0.28;;
72408;SDS011;60402;48.082;11.628;2023-11-19T10:07:29;0.52;;;0.30;;
72408;SDS011;60402;48.082;11.628;2023-11-19T10:10:15;0.47;;;0.20;;
72408;SDS011;60402;48.082;11.628;2023-11-19T10:13:04;0.47;;;0.30;;
72408;SDS011;60402;48.082;11.628;2023-11-19T10:15:50;0.65;;;0.30;;
72408;SDS011;60402;48.082;11.628;2023-11-19T10:18:37;1.30;;;0.45;;
72408;SDS011;60402;48.082;11.628;2023-11-19T10:21:24;0.52;;;0.28;;
72408;SDS011;60402;48.082;11.628;2023-11-19T10:24:10;0.60;;;0.25;;
72408;SDS011;60402;48.082;11.628;2023-11-19T10:26:56;0.93;;;0.40;;
72408;SDS011;60402;48.082;11.628;2023-11-19T10:29:44;0.52;;;0.25;;
72408;SDS011;60402;48.082;11.628;2023-11-19T10:32:32;0.30;;;0.20;;
72408;SDS011;60402;48.082;11.628;2023-11-19T10:35:17;0.50;;;0.20;;
72408;SDS011;60402;48.082;11.628;2023-11-19T10:38:25;0.80;;;0.28;;
72408;SDS011;60402;48.082;11.628;2023-11-19T10:41:10;0.68;;;0.20;;
72408;SDS011;60402;48.082;11.628;2023-11-19T10:43:56;1.55;;;0.40;;
72408;SDS011;60402;48.082;11.628;2023-11-19T10:46:42;0.85;;;0.38;;
72408;SDS011;60402;48.082;11.628;2023-11-19T10:49:29;0.40;;;0.20;;
72408;SDS011;60402;48.082;11.628;2023-11-19T10:52:16;0.80;;;0.32;;
72408;SDS011;60402;48.082;11.628;2023-11-19T10:55:05;0.95;;;0.22;;
72408;SDS011;60402;48.082;11.628;2023-11-19T10:58:00;0.20;;;0.20;;
72408;SDS011;60402;48.082;11.628;2023-11-19T11:00:53;0.20;;;0.20;;
72408;SDS011;60402;48.082;11.628;2023-11-19T11:03:42;0.50;;;0.10;;
72408;SDS011;60402;48.082;11.628;2023-11-19T11:06:31;0.65;;;0.30;;
72408;SDS011;60402;48.082;11.628;2023-11-19T11:09:19;0.43;;;0.30;;
72408;SDS011;60402;48.082;11.628;2023-11-19T11:12:06;1.27;;;0.25;;
72408;SDS011;60402;48.082;11.628;2023-11-19T11:14:52;1.65;;;0.20;;
72408;SDS011;60402;48.082;11.628;2023-11-19T11:17:40;0.10;;;0.10;;
72408;SDS011;60402;48.082;11.628;2023-11-19T11:20:31;1.48;;;0.30;;
72408;SDS011;60402;48.082;11.628;2023-11-19T11:26:33;0.22;;;0.15;;
72408;SDS011;60402;48.082;11.628;2023-11-19T11:29:54;2.33;;;0.38;;
72408;SDS011;60402;48.082;11.628;2023-11-19T11:32:53;0.57;;;0.20;;
72408;SDS011;60402;48.082;11.628;2023-11-19T11:36:17;0.20;;;0.17;;
72408;SDS011;60402;48.082;11.628;2023-11-19T11:45:07;0.45;;;0.20;;
72408;SDS011;60402;48.082;11.628;2023-11-19T11:50:47;0.73;;;0.20;;
72408;SDS011;60402;48.082;11.628;2023-11-19T11:53:34;0.10;;;0.10;;
72408;SDS011;60402;48.082;11.628;2023-11-19T11:56:20;0.55;;;0.20;;
72408;SDS011;60402;48.082;11.628;2023-11-19T11:59:18;0.57;;;0.20;;
72408;SDS011;60402;48.082;11.628;2023-11-19T12:02:04;1.08;;;0.10;;
72408;SDS011;60402;48.082;11.628;2023-11-19T12:04:50;1.05;;;0.22;;
72408;SDS011;60402;48.082;11.628;2023-11-19T12:07:37;0.32;;;0.13;;
72408;SDS011;60402;48.082;11.628;2023-11-19T12:10:24;0.20;;;0.10;;
72408;SDS011;60402;48.082;11.628;2023-11-19T12:13:11;0.55;;;0.30;;
72408;SDS011;60402;48.082;11.628;2023-11-19T12:18:45;1.08;;;0.20;;
72408;SDS011;60402;48.082;11.628;2023-11-19T12:21:32;0.10;;;0.10;;
72408;SDS011;60402;48.082;11.628;2023-11-19T12:24:19;0.30;;;0.17;;
72408;SDS011;60402;48.082;11.628;2023-11-19T12:27:06;0.50;;;0.20;;
72408;SDS011;60402;48.082;11.628;2023-11-19T12:29:52;0.25;;;0.10;;
72408;SDS011;60402;48.082;11.628;2023-11-19T12:32:41;0.45;;;0.10;;
72408;SDS011;60402;48.082;11.628;2023-11-19T12:35:28;1.08;;;0.10;;
72408;SDS011;60402;48.082;11.628;2023-11-19T12:38:24;0.20;;;0.17;;
72408;SDS011;60402;48.082;11.628;2023-11-19T12:41:10;0.25;;;0.20;;
72408;SDS011;60402;48.082;11.628;2023-11-19T12:44:09;0.73;;;0.30;;
72408;SDS011;60402;48.082;11.628;2023-11-19T12:46:59;1.55;;;0.30;;
72408;SDS011;60402;48.082;11.628;2023-11-19T12:49:56;0.35;;;0.20;;
72408;SDS011;60402;48.082;11.628;2023-11-19T12:52:42;0.30;;;0.20;;
72408;SDS011;60402;48.082;11.628;2023-11-19T12:55:28;0.22;;;0.10;;
72408;SDS011;60402;48.082;11.628;2023-11-19T12:58:30;1.00;;;0.30;;
72408;SDS011;60402;48.082;11.628;2023-11-19T13:01:19;1.88;;;0.35;;
72408;SDS011;60402;48.082;11.628;2023-11-19T13:04:15;0.90;;;0.28;;
72408;SDS011;60402;48.082;11.628;2023-11-19T13:07:04;0.73;;;0.20;;
72408;SDS011;60402;48.082;11.628;2023-11-19T13:09:50;1.85;;;0.22;;
72408;SDS011;60402;48.082;11.628;2023-11-19T13:12:39;0.38;;;0.20;;
72408;SDS011;60402;48.082;11.628;2023-11-19T13:15:24;0.30;;;0.22;;
72408;SDS011;60402;48.082;11.628;2023-11-19T13:18:12;0.40;;;0.15;;
72408;SDS011;60402;48.082;11.628;2023-11-19T13:20:59;0.10;;;0.10;;
72408;SDS011;60402;48.082;11.628;2023-11-19T13:23:45;0.85;;;0.25;;
72408;SDS011;60402;48.082;11.628;2023-11-19T13:26:37;0.95;;;0.13;;
72408;SDS011;60402;48.082;11.628;2023-11-19T13:29:23;0.57;;;0.30;;
72408;SDS011;60402;48.082;11.628;2023-11-19T13:32:09;0.30;;;0.25;;
72408;SDS011;60402;48.082;11.628;2023-11-19T13:34:54;0.15;;;0.10;;
72408;SDS011;60402;48.082;11.628;2023-11-19T13:37:40;0.90;;;0.40;;
72408;SDS011;60402;48.082;11.628;2023-11-19T13:40:26;1.00;;;0.30;;
72408;SDS011;60402;48.082;11.628;2023-11-19T13:43:12;0.20;;;0.20;;
72408;SDS011;60402;48.082;11.628;2023-11-19T13:45:58;0.45;;;0.30;;
72408;SDS011;60402;48.082;11.628;2023-11-19T13:48:43;0.20;;;0.10;;
72408;SDS011;60402;48.082;11.628;2023-11-19T13:51:29;0.73;;;0.30;;
72408;SDS011;60402;48.082;11.628;2023-11-19T13:54:15;1.48;;;0.80;;
72408;SDS011;60402;48.082;11.628;2023-11-19T13:57:01;0.82;;;0.25;;
72408;SDS011;60402;48.082;11.628;2023-11-19T13:59:49;1.40;;;0.30;;
72408;SDS011;60402;48.082;11.628;2023-11-19T14:02:34;0.80;;;0.20;;
72408;SDS011;60402;48.082;11.628;2023-11-19T14:05:20;0.20;;;0.10;;
72408;SDS011;60402;48.082;11.628;2023-11-19T14:08:06;0.20;;;0.15;;
72408;SDS011;60402;48.082;11.628;2023-11-19T14:10:56;1.95;;;0.30;;
72408;SDS011;60402;48.082;11.628;2023-11-19T14:13:42;1.08;;;0.30;;
72408;SDS011;60402;48.082;11.628;2023-11-19T14:16:28;1.08;;;0.40;;
72408;SDS011;60402;48.082;11.628;2023-11-19T14:19:14;0.45;;;0.22;;
72408;SDS011;60402;48.082;11.628;2023-11-19T14:22:00;1.15;;;0.22;;
72408;SDS011;60402;48.082;11.628;2023-11-19T14:24:45;1.05;;;0.50;;
72408;SDS011;60402;48.082;11.628;2023-11-19T14:27:31;1.77;;;0.40;;
72408;SDS011;60402;48.082;11.628;2023-11-19T14:30:17;0.50;;;0.20;;
72408;SDS011;60402;48.082;11.628;2023-11-19T14:33:03;0.30;;;0.20;;
72408;SDS011;60402;48.082;11.628;2023-11-19T14:35:50;0.82;;;0.30;;
72408;SDS011;60402;48.082;11.628;2023-11-19T14:38:36;0.45;;;0.22;;
72408;SDS011;60402;48.082;11.628;2023-11-19T14:41:21;0.55;;;0.20;;
72408;SDS011;60402;48.082;11.628;2023-11-19T14:44:09;0.32;;;0.20;;
72408;SDS011;60402;48.082;11.628;2023-11-19T14:46:55;1.05;;;0.40;;
72408;SDS011;60402;48.082;11.628;2023-11-19T14:49:41;1.05;;;0.28;;
72408;SDS011;60402;48.082;11.628;2023-11-19T14:52:29;1.83;;;0.50;;
72408;SDS011;60402;48.082;11.628;2023-11-19T14:55:15;0.40;;;0.20;;
72408;SDS011;60402;48.082;11.628;2023-11-19T14:58:00;0.40;;;0.20;;
72408;SDS011;60402;48.082;11.628;2023-11-19T15:00:46;1.50;;;0.30;;
72408;SDS011;60402;48.082;11.628;2023-11-19T15:03:32;0.30;;;0.20;;
72408;SDS011;60402;48.082;11.628;2023-11-19T15:06:18;1.02;;;0.30;;
72408;SDS011;60402;48.082;11.628;2023-11-19T15:09:07;1.20;;;0.20;;
72408;SDS011;60402;48.082;11.628;2023-11-19T15:11:55;1.20;;;0.32;;
72408;SDS011;60402;48.082;11.628;2023-11-19T15:14:41;0.98;;;0.30;;
72408;SDS011;60402;48.082;11.628;2023-11-19T15:17:26;1.40;;;0.30;;
72408;SDS011;60402;48.082;11.628;2023-11-19T15:20:12;2.05;;;0.40;;
72408;SDS011;60402;48.082;11.628;2023-11-19T15:23:00;0.63;;;0.40;;
72408;SDS011;60402;48.082;11.628;2023-11-19T15:25:46;0.20;;;0.20;;
72408;SDS011;60402;48.082;11.628;2023-11-19T15:28:32;0.60;;;0.45;;
72408;SDS011;60402;48.082;11.628;2023-11-19T15:31:18;0.82;;;0.30;;
72408;SDS011;60402;48.082;11.628;2023-11-19T15:34:03;1.00;;;0.50;;
72408;SDS011;60402;48.082;11.628;2023-11-19T15:36:49;0.35;;;0.30;;
72408;SDS011;60402;48.082;11.628;2023-11-19T15:39:35;1.33;;;0.30;;
72408;SDS011;60402;48.082;11.628;2023-11-19T15:42:21;1.10;;;0.40;;
72408;SDS011;60402;48.082;11.628;2023-11-19T15:45:07;0.95;;;0.50;;
72408;SDS011;60402;48.082;11.628;2023-11-19T15:47:53;2.30;;;0.90;;
72408;SDS011;60402;48.082;11.628;2023-11-19T15:50:40;2.03;;;0.90;;
72408;SDS011;60402;48.082;11.628;2023-11-19T15:53:26;3.90;;;1.48;;
72408;SDS011;60402;48.082;11.628;2023-11-19T15:56:11;1.77;;;1.10;;
72408;SDS011;60402;48.082;11.628;2023-11-19T15:58:57;4.57;;;1.40;;
72408;SDS011;60402;48.082;11.628;2023-11-19T16:01:43;2.25;;;1.00;;
72408;SDS011;60402;48.082;11.628;2023-11-19T16:04:28;2.88;;;1.27;;
72408;SDS011;60402;48.082;11.628;2023-11-19T16:07:14;5.95;;;1.58;;
72408;SDS011;60402;48.082;11.628;2023-11-19T16:10:00;2.78;;;1.10;;
72408;SDS011;60402;48.082;11.628;2023-11-19T16:12:49;2.20;;;1.00;;
72408;SDS011;60402;48.082;11.628;2023-11-19T16:15:35;2.97;;;1.25;;
72408;SDS011;60402;48.082;11.628;2023-11-19T16:18:26;2.50;;;1.17;;
72408;SDS011;60402;48.082;11.628;2023-11-19T16:21:13;1.83;;;0.93;;
72408;SDS011;60402;48.082;11.628;2023-11-19T16:23:58;1.40;;;0.90;;
72408;SDS011;60402;48.082;11.628;2023-11-19T16:26:47;2.30;;;0.80;;
72408;SDS011;60402;48.082;11.628;2023-11-19T16:29:36;1.40;;;0.55;;
72408;SDS011;60402;48.082;11.628;2023-11-19T16:32:21;1.35;;;0.57;;
72408;SDS011;60402;48.082;11.628;2023-11-19T16:35:07;0.60;;;0.40;;
72408;SDS011;60402;48.082;11.628;2023-11-19T16:38:00;1.30;;;0.47;;
72408;SDS011;60402;48.082;11.628;2023-11-19T16:40:46;0.63;;;0.50;;
72408;SDS011;60402;48.082;11.628;2023-11-19T16:43:35;0.90;;;0.40;;
72408;SDS011;60402;48.082;11.628;2023-11-19T16:46:24;0.98;;;0.40;;
72408;SDS011;60402;48.082;11.628;2023-11-19T16:49:19;2.13;;;0.80;;